sensor_id;sensor_type;location;lat;lon;timestamp;P1;durP1;ratioP1;P2;durP2;ratioP2
2652;SDS011;1336;48.692;9.144;2023-03-13T06:00:23;0.90;;;0.70;;
2652;SDS011;1336;48.692;9.144;2023-03-13T06:01:14;0.85;;;0.70;;
2652;SDS011;1336;48.692;9.144;2023-03-13T06:02:05;1.20;;;0.70;;
2652;SDS011;1336;48.692;9.144;2023-03-13T06:02:57;2.05;;;0.80;;
2652;SDS011;1336;48.692;9.144;2023-03-13T06:03:48;1.13;;;0.63;;
2652;SDS011;1336;48.692;9.144;2023-03-13T06:04:39;1.00;;;0.70;;
2652;SDS011;1336;48.692;9.144;2023-03-13T06:05:30;1.33;;;0.70;;
2652;SDS011;1336;48.692;9.144;2023-03-13T06:06:22;1.20;;;0.70;;
2652;SDS011;1336;48.692;9.144;2023-03-13T06:07:12;1.87;;;1.10;;
2652;SDS011;1336;48.692;9.144;2023-03-13T06:08:04;1.25;;;0.80;;
2652;SDS011;1336;48.692;9.144;2023-03-13T06:08:56;1.42;;;0.70;;
2652;SDS011;1336;48.692;9.144;2023-03-13T06:09:47;1.23;;;0.70;;
2652;SDS011;1336;48.692;9.144;2023-03-13T06:10:38;2.30;;;0.90;;
2652;SDS011;1336;48.692;9.144;2023-03-13T06:11:30;0.80;;;0.60;;
2652;SDS011;1336;48.692;9.144;2023-03-13T06:12:21;1.77;;;0.77;;
2652;SDS011;1336;48.692;9.144;2023-03-13T06:13:12;0.90;;;0.70;;
2652;SDS011;1336;48.692;9.144;2023-03-13T06:14:03;1.10;;;0.80;;
2652;SDS011;1336;48.692;9.144;2023-03-13T06:14:55;1.20;;;0.77;;
2652;SDS011;1336;48.692;9.144;2023-03-13T06:15:51;1.13;;;0.60;;
2652;SDS011;1336;48.692;9.144;2023-03-13T06:16:43;1.48;;;0.68;;
2652;SDS011;1336;48.692;9.144;2023-03-13T06:17:34;1.75;;;0.80;;
2652;SDS011;1336;48.692;9.144;2023-03-13T06:18:26;1.02;;;0.60;;
2652;SDS011;1336;48.692;9.144;2023-03-13T06:19:17;1.20;;;0.80;;
2652;SDS011;1336;48.692;9.144;2023-03-13T06:20:09;2.25;;;0.80;;
2652;SDS011;1336;48.692;9.144;2023-03-13T06:21:01;1.00;;;0.60;;
2652;SDS011;1336;48.692;9.144;2023-03-13T06:21:53;3.35;;;1.00;;
2652;SDS011;1336;48.692;9.144;2023-03-13T06:22:43;0.97;;;0.60;;
2652;SDS011;1336;48.692;9.144;2023-03-13T06:23:35;1.00;;;0.70;;
2652;SDS011;1336;48.692;9.144;2023-03-13T06:24:26;1.03;;;0.70;;
2652;SDS011;1336;48.692;9.144;2023-03-13T06:25:18;1.05;;;0.80;;
2652;SDS011;1336;48.692;9.144;2023-03-13T06:26:09;1.20;;;0.80;;
2652;SDS011;1336;48.692;9.144;2023-03-13T06:27:00;0.93;;;0.70;;
2652;SDS011;1336;48.692;9.144;2023-03-13T06:27:52;1.13;;;0.90;;
2652;SDS011;1336;48.692;9.144;2023-03-13T06:28:43;0.90;;;0.80;;
2652;SDS011;1336;48.692;9.144;2023-03-13T06:29:34;1.30;;;0.75;;
2652;SDS011;1336;48.692;9.144;2023-03-13T06:30:25;1.27;;;0.97;;
2652;SDS011;1336;48.692;9.144;2023-03-13T06:31:18;2.42;;;1.00;;
2652;SDS011;1336;48.692;9.144;2023-03-13T06:32:09;1.98;;;1.27;;
2652;SDS011;1336;48.692;9.144;2023-03-13T06:33:01;1.40;;;0.85;;
2652;SDS011;1336;48.692;9.144;2023-03-13T06:33:52;1.80;;;0.90;;
2652;SDS011;1336;48.692;9.144;2023-03-13T06:34:43;2.20;;;0.95;;
2652;SDS011;1336;48.692;9.144;2023-03-13T06:35:34;1.80;;;1.10;;
2652;SDS011;1336;48.692;9.144;2023-03-13T06:36:26;0.90;;;0.70;;
2652;SDS011;1336;48.692;9.144;2023-03-13T06:37:17;1.10;;;0.53;;
2652;SDS011;1336;48.692;9.144;2023-03-13T06:38:08;2.17;;;0.80;;
2652;SDS011;1336;48.692;9.144;2023-03-13T06:38:59;1.20;;;0.60;;
2652;SDS011;1336;48.692;9.144;2023-03-13T06:39:52;2.67;;;0.80;;
2652;SDS011;1336;48.692;9.144;2023-03-13T06:40:42;1.00;;;0.53;;
2652;SDS011;1336;48.692;9.144;2023-03-13T06:41:34;1.10;;;0.82;;
2652;SDS011;1336;48.692;9.144;2023-03-13T06:42:25;1.35;;;0.75;;
2652;SDS011;1336;48.692;9.144;2023-03-13T06:43:17;2.38;;;0.85;;
2652;SDS011;1336;48.692;9.144;2023-03-13T06:44:08;1.10;;;0.60;;
2652;SDS011;1336;48.692;9.144;2023-03-13T06:44:59;1.02;;;0.60;;
2652;SDS011;1336;48.692;9.144;2023-03-13T06:45:52;3.38;;;0.85;;
2652;SDS011;1336;48.692;9.144;2023-03-13T06:46:45;1.15;;;0.73;;
2652;SDS011;1336;48.692;9.144;2023-03-13T06:47:36;1.30;;;0.68;;
2652;SDS011;1336;48.692;9.144;2023-03-13T06:48:27;1.00;;;0.70;;
2652;SDS011;1336;48.692;9.144;2023-03-13T06:49:18;1.63;;;0.90;;
2652;SDS011;1336;48.692;9.144;2023-03-13T06:50:10;1.38;;;0.70;;
2652;SDS011;1336;48.692;9.144;2023-03-13T06:51:01;1.57;;;0.70;;
2652;SDS011;1336;48.692;9.144;2023-03-13T06:51:52;1.02;;;0.60;;
2652;SDS011;1336;48.692;9.144;2023-03-13T06:52:46;1.10;;;0.60;;
2652;SDS011;1336;48.692;9.144;2023-03-13T06:53:38;0.93;;;0.60;;
2652;SDS011;1336;48.692;9.144;2023-03-13T06:54:29;1.10;;;0.60;;
2652;SDS011;1336;48.692;9.144;2023-03-13T06:55:20;0.85;;;0.60;;
2652;SDS011;1336;48.692;9.144;2023-03-13T06:56:11;1.00;;;0.60;;
2652;SDS011;1336;48.692;9.144;2023-03-13T06:57:03;1.73;;;0.70;;
2652;SDS011;1336;48.692;9.144;2023-03-13T06:57:54;1.67;;;0.70;;
2652;SDS011;1336;48.692;9.144;2023-03-13T06:58:46;1.10;;;0.80;;
2652;SDS011;1336;48.692;9.144;2023-03-13T06:59:37;0.88;;;0.68;;
2652;SDS011;1336;48.692;9.144;2023-03-13T07:00:29;1.10;;;0.70;;
2652;SDS011;1336;48.692;9.144;2023-03-13T07:01:19;0.90;;;0.80;;
2652;SDS011;1336;48.692;9.144;2023-03-13T07:02:12;1.08;;;0.70;;
2652;SDS011;1336;48.692;9.144;2023-03-13T07:03:04;1.13;;;0.80;;
2652;SDS011;1336;48.692;9.144;2023-03-13T07:03:56;0.70;;;0.60;;
2652;SDS011;1336;48.692;9.144;2023-03-13T07:04:47;1.00;;;0.70;;
2652;SDS011;1336;48.692;9.144;2023-03-13T07:05:38;1.15;;;0.60;;
2652;SDS011;1336;48.692;9.144;2023-03-13T07:06:29;1.10;;;0.70;;
2652;SDS011;1336;48.692;9.144;2023-03-13T07:07:21;0.70;;;0.65;;
2652;SDS011;1336;48.692;9.144;2023-03-13T07:08:12;3.03;;;0.77;;
2652;SDS011;1336;48.692;9.144;2023-03-13T07:09:03;1.00;;;0.70;;
2652;SDS011;1336;48.692;9.144;2023-03-13T07:09:54;6.07;;;0.50;;
2652;SDS011;1336;48.692;9.144;2023-03-13T07:10:46;0.95;;;0.68;;
2652;SDS011;1336;48.692;9.144;2023-03-13T07:11:40;0.70;;;0.52;;
2652;SDS011;1336;48.692;9.144;2023-03-13T07:12:32;1.10;;;0.80;;
2652;SDS011;1336;48.692;9.144;2023-03-13T07:13:23;1.35;;;0.63;;
2652;SDS011;1336;48.692;9.144;2023-03-13T07:14:15;0.98;;;0.68;;
2652;SDS011;1336;48.692;9.144;2023-03-13T07:15:06;1.10;;;0.70;;
2652;SDS011;1336;48.692;9.144;2023-03-13T07:15:58;1.20;;;0.70;;
2652;SDS011;1336;48.692;9.144;2023-03-13T07:16:49;1.10;;;0.80;;
2652;SDS011;1336;48.692;9.144;2023-03-13T07:17:42;1.00;;;0.60;;
2652;SDS011;1336;48.692;9.144;2023-03-13T07:18:33;1.88;;;0.70;;
2652;SDS011;1336;48.692;9.144;2023-03-13T07:19:25;1.33;;;0.80;;
2652;SDS011;1336;48.692;9.144;2023-03-13T07:20:16;1.23;;;0.73;;
2652;SDS011;1336;48.692;9.144;2023-03-13T07:21:08;0.95;;;0.85;;
2652;SDS011;1336;48.692;9.144;2023-03-13T07:21:59;1.02;;;0.70;;
2652;SDS011;1336;48.692;9.144;2023-03-13T07:22:51;1.33;;;0.80;;
2652;SDS011;1336;48.692;9.144;2023-03-13T07:23:42;0.80;;;0.50;;
2652;SDS011;1336;48.692;9.144;2023-03-13T07:24:34;1.45;;;0.73;;
2652;SDS011;1336;48.692;9.144;2023-03-13T07:25:24;1.47;;;0.67;;
2652;SDS011;1336;48.692;9.144;2023-03-13T07:26:16;0.90;;;0.73;;
2652;SDS011;1336;48.692;9.144;2023-03-13T07:27:07;1.17;;;0.60;;
2652;SDS011;1336;48.692;9.144;2023-03-13T07:27:59;1.27;;;0.80;;
2652;SDS011;1336;48.692;9.144;2023-03-13T07:28:50;2.15;;;1.17;;
2652;SDS011;1336;48.692;9.144;2023-03-13T07:29:42;0.95;;;0.70;;
2652;SDS011;1336;48.692;9.144;2023-03-13T07:30:32;0.80;;;0.60;;
2652;SDS011;1336;48.692;9.144;2023-03-13T07:31:24;1.10;;;0.80;;
2652;SDS011;1336;48.692;9.144;2023-03-13T07:32:15;0.90;;;0.70;;
2652;SDS011;1336;48.692;9.144;2023-03-13T07:33:09;0.82;;;0.65;;
2652;SDS011;1336;48.692;9.144;2023-03-13T07:34:00;0.95;;;0.63;;
2652;SDS011;1336;48.692;9.144;2023-03-13T07:34:51;1.05;;;0.60;;
2652;SDS011;1336;48.692;9.144;2023-03-13T07:35:46;1.77;;;0.80;;
2652;SDS011;1336;48.692;9.144;2023-03-13T07:36:39;0.90;;;0.70;;
2652;SDS011;1336;48.692;9.144;2023-03-13T07:37:31;0.80;;;0.50;;
2652;SDS011;1336;48.692;9.144;2023-03-13T07:38:21;1.20;;;0.73;;
2652;SDS011;1336;48.692;9.144;2023-03-13T07:39:13;1.00;;;0.70;;
2652;SDS011;1336;48.692;9.144;2023-03-13T07:40:04;1.00;;;0.60;;
2652;SDS011;1336;48.692;9.144;2023-03-13T07:40:58;0.90;;;0.60;;
2652;SDS011;1336;48.692;9.144;2023-03-13T07:41:49;1.10;;;0.80;;
2652;SDS011;1336;48.692;9.144;2023-03-13T07:42:40;1.77;;;0.82;;
2652;SDS011;1336;48.692;9.144;2023-03-13T07:43:31;1.90;;;0.80;;
2652;SDS011;1336;48.692;9.144;2023-03-13T07:44:23;0.90;;;0.70;;
2652;SDS011;1336;48.692;9.144;2023-03-13T07:45:14;0.80;;;0.60;;
2652;SDS011;1336;48.692;9.144;2023-03-13T07:46:06;1.08;;;0.80;;
2652;SDS011;1336;48.692;9.144;2023-03-13T07:46:58;1.00;;;0.70;;
2652;SDS011;1336;48.692;9.144;2023-03-13T07:47:50;2.17;;;0.80;;
2652;SDS011;1336;48.692;9.144;2023-03-13T07:48:42;0.80;;;0.70;;
2652;SDS011;1336;48.692;9.144;2023-03-13T07:49:34;0.80;;;0.70;;
2652;SDS011;1336;48.692;9.144;2023-03-13T07:50:30;1.27;;;0.70;;
2652;SDS011;1336;48.692;9.144;2023-03-13T07:51:22;0.93;;;0.60;;
2652;SDS011;1336;48.692;9.144;2023-03-13T07:52:14;2.05;;;0.90;;
2652;SDS011;1336;48.692;9.144;2023-03-13T07:53:06;0.90;;;0.77;;
2652;SDS011;1336;48.692;9.144;2023-03-13T07:53:57;1.40;;;0.80;;
2652;SDS011;1336;48.692;9.144;2023-03-13T07:54:49;1.00;;;0.70;;
2652;SDS011;1336;48.692;9.144;2023-03-13T07:55:40;1.27;;;0.77;;
2652;SDS011;1336;48.692;9.144;2023-03-13T07:56:31;1.20;;;0.73;;
2652;SDS011;1336;48.692;9.144;2023-03-13T07:57:22;1.00;;;0.70;;
2652;SDS011;1336;48.692;9.144;2023-03-13T07:58:14;1.67;;;1.58;;
2652;SDS011;1336;48.692;9.144;2023-03-13T07:59:05;2.47;;;1.60;;
2652;SDS011;1336;48.692;9.144;2023-03-13T07:59:56;1.35;;;1.17;;
2652;SDS011;1336;48.692;9.144;2023-03-13T08:00:47;1.40;;;1.10;;
2652;SDS011;1336;48.692;9.144;2023-03-13T08:01:39;1.65;;;1.20;;
2652;SDS011;1336;48.692;9.144;2023-03-13T08:02:32;0.98;;;0.88;;
2652;SDS011;1336;48.692;9.144;2023-03-13T08:03:23;1.88;;;1.25;;
2652;SDS011;1336;48.692;9.144;2023-03-13T08:04:16;2.55;;;1.00;;
2652;SDS011;1336;48.692;9.144;2023-03-13T08:05:08;0.95;;;0.85;;
2652;SDS011;1336;48.692;9.144;2023-03-13T08:05:59;1.30;;;1.00;;
2652;SDS011;1336;48.692;9.144;2023-03-13T08:06:52;1.55;;;1.17;;
2652;SDS011;1336;48.692;9.144;2023-03-13T08:07:43;1.50;;;0.80;;
2652;SDS011;1336;48.692;9.144;2023-03-13T08:08:35;2.00;;;0.80;;
2652;SDS011;1336;48.692;9.144;2023-03-13T08:09:30;1.85;;;0.90;;
2652;SDS011;1336;48.692;9.144;2023-03-13T08:10:21;2.08;;;0.90;;
2652;SDS011;1336;48.692;9.144;2023-03-13T08:11:13;1.40;;;0.80;;
2652;SDS011;1336;48.692;9.144;2023-03-13T08:12:06;3.28;;;1.00;;
2652;SDS011;1336;48.692;9.144;2023-03-13T08:12:58;1.58;;;0.80;;
2652;SDS011;1336;48.692;9.144;2023-03-13T08:13:50;1.00;;;0.70;;
2652;SDS011;1336;48.692;9.144;2023-03-13T08:14:41;1.00;;;0.70;;
2652;SDS011;1336;48.692;9.144;2023-03-13T08:15:33;1.70;;;0.75;;
2652;SDS011;1336;48.692;9.144;2023-03-13T08:16:24;1.50;;;0.77;;
2652;SDS011;1336;48.692;9.144;2023-03-13T08:17:17;0.70;;;0.60;;
2652;SDS011;1336;48.692;9.144;2023-03-13T08:18:08;1.37;;;0.80;;
2652;SDS011;1336;48.692;9.144;2023-03-13T08:19:00;1.15;;;0.93;;
2652;SDS011;1336;48.692;9.144;2023-03-13T08:19:55;1.65;;;0.98;;
2652;SDS011;1336;48.692;9.144;2023-03-13T08:20:47;1.10;;;1.00;;
2652;SDS011;1336;48.692;9.144;2023-03-13T08:21:37;1.00;;;0.80;;
2652;SDS011;1336;48.692;9.144;2023-03-13T08:22:29;1.73;;;0.70;;
2652;SDS011;1336;48.692;9.144;2023-03-13T08:23:20;1.63;;;1.00;;
2652;SDS011;1336;48.692;9.144;2023-03-13T08:24:11;1.10;;;0.80;;
2652;SDS011;1336;48.692;9.144;2023-03-13T08:25:02;1.60;;;0.90;;
2652;SDS011;1336;48.692;9.144;2023-03-13T08:25:54;0.85;;;0.70;;
2652;SDS011;1336;48.692;9.144;2023-03-13T08:26:45;0.90;;;0.70;;
2652;SDS011;1336;48.692;9.144;2023-03-13T08:27:36;0.80;;;0.70;;
2652;SDS011;1336;48.692;9.144;2023-03-13T08:28:27;3.10;;;1.40;;
2652;SDS011;1336;48.692;9.144;2023-03-13T08:29:19;1.70;;;1.13;;
2652;SDS011;1336;48.692;9.144;2023-03-13T08:30:11;1.60;;;1.38;;
2652;SDS011;1336;48.692;9.144;2023-03-13T08:31:06;2.58;;;1.65;;
2652;SDS011;1336;48.692;9.144;2023-03-13T08:31:59;1.95;;;1.30;;
2652;SDS011;1336;48.692;9.144;2023-03-13T08:32:50;2.10;;;1.80;;
2652;SDS011;1336;48.692;9.144;2023-03-13T08:33:41;2.40;;;2.20;;
2652;SDS011;1336;48.692;9.144;2023-03-13T08:34:34;3.35;;;2.45;;
2652;SDS011;1336;48.692;9.144;2023-03-13T08:35:28;3.35;;;3.05;;
2652;SDS011;1336;48.692;9.144;2023-03-13T08:36:21;4.25;;;2.85;;
2652;SDS011;1336;48.692;9.144;2023-03-13T08:37:14;1.83;;;1.65;;
2652;SDS011;1336;48.692;9.144;2023-03-13T08:38:06;1.58;;;1.15;;
2652;SDS011;1336;48.692;9.144;2023-03-13T08:38:57;3.70;;;1.15;;
2652;SDS011;1336;48.692;9.144;2023-03-13T08:39:50;1.38;;;1.20;;
2652;SDS011;1336;48.692;9.144;2023-03-13T08:40:43;1.92;;;1.40;;
2652;SDS011;1336;48.692;9.144;2023-03-13T08:41:35;1.20;;;0.93;;
2652;SDS011;1336;48.692;9.144;2023-03-13T08:42:29;1.00;;;0.90;;
2652;SDS011;1336;48.692;9.144;2023-03-13T08:43:20;1.00;;;0.80;;
2652;SDS011;1336;48.692;9.144;2023-03-13T08:44:13;1.20;;;0.80;;
2652;SDS011;1336;48.692;9.144;2023-03-13T08:45:05;1.73;;;0.90;;
2652;SDS011;1336;48.692;9.144;2023-03-13T08:45:58;1.15;;;0.93;;
2652;SDS011;1336;48.692;9.144;2023-03-13T08:46:48;1.10;;;0.80;;
2652;SDS011;1336;48.692;9.144;2023-03-13T08:47:41;1.00;;;0.82;;
2652;SDS011;1336;48.692;9.144;2023-03-13T08:48:32;1.70;;;0.93;;
2652;SDS011;1336;48.692;9.144;2023-03-13T08:49:23;1.58;;;0.95;;
2652;SDS011;1336;48.692;9.144;2023-03-13T08:50:14;1.03;;;0.93;;
2652;SDS011;1336;48.692;9.144;2023-03-13T08:51:08;2.35;;;0.90;;
2652;SDS011;1336;48.692;9.144;2023-03-13T08:52:00;0.93;;;0.82;;
2652;SDS011;1336;48.692;9.144;2023-03-13T08:52:54;1.45;;;1.05;;
2652;SDS011;1336;48.692;9.144;2023-03-13T08:53:45;0.80;;;0.70;;
2652;SDS011;1336;48.692;9.144;2023-03-13T08:54:37;2.45;;;0.95;;
2652;SDS011;1336;48.692;9.144;2023-03-13T08:55:28;1.57;;;1.07;;
2652;SDS011;1336;48.692;9.144;2023-03-13T08:56:20;2.47;;;0.82;;
2652;SDS011;1336;48.692;9.144;2023-03-13T08:57:12;1.45;;;0.70;;
2652;SDS011;1336;48.692;9.144;2023-03-13T08:58:04;1.00;;;0.80;;
2652;SDS011;1336;48.692;9.144;2023-03-13T08:58:55;1.93;;;1.17;;
2652;SDS011;1336;48.692;9.144;2023-03-13T08:59:48;1.25;;;0.80;;
2652;SDS011;1336;48.692;9.144;2023-03-13T09:00:40;1.75;;;0.80;;
2652;SDS011;1336;48.692;9.144;2023-03-13T09:01:33;1.00;;;0.80;;
2652;SDS011;1336;48.692;9.144;2023-03-13T09:02:24;3.40;;;0.90;;
2652;SDS011;1336;48.692;9.144;2023-03-13T09:03:16;1.45;;;0.80;;
2652;SDS011;1336;48.692;9.144;2023-03-13T09:04:07;1.30;;;0.80;;
2652;SDS011;1336;48.692;9.144;2023-03-13T09:04:59;2.00;;;0.85;;
2652;SDS011;1336;48.692;9.144;2023-03-13T09:05:51;1.00;;;0.80;;
2652;SDS011;1336;48.692;9.144;2023-03-13T09:06:43;2.53;;;1.10;;
2652;SDS011;1336;48.692;9.144;2023-03-13T09:07:35;1.00;;;0.90;;
2652;SDS011;1336;48.692;9.144;2023-03-13T09:08:26;1.87;;;1.10;;
2652;SDS011;1336;48.692;9.144;2023-03-13T09:09:19;1.80;;;0.98;;
2652;SDS011;1336;48.692;9.144;2023-03-13T09:10:09;1.50;;;1.00;;
2652;SDS011;1336;48.692;9.144;2023-03-13T09:11:02;0.90;;;0.70;;
2652;SDS011;1336;48.692;9.144;2023-03-13T09:11:54;2.10;;;1.05;;
2652;SDS011;1336;48.692;9.144;2023-03-13T09:12:45;1.17;;;0.75;;
2652;SDS011;1336;48.692;9.144;2023-03-13T09:13:38;1.17;;;0.70;;
2652;SDS011;1336;48.692;9.144;2023-03-13T09:14:31;0.93;;;0.80;;
2652;SDS011;1336;48.692;9.144;2023-03-13T09:15:22;1.40;;;1.05;;
2652;SDS011;1336;48.692;9.144;2023-03-13T09:16:14;1.87;;;1.00;;
2652;SDS011;1336;48.692;9.144;2023-03-13T09:17:06;2.17;;;0.90;;
2652;SDS011;1336;48.692;9.144;2023-03-13T09:17:58;1.50;;;1.00;;
2652;SDS011;1336;48.692;9.144;2023-03-13T09:18:49;1.20;;;0.90;;
2652;SDS011;1336;48.692;9.144;2023-03-13T09:19:41;1.15;;;0.82;;
2652;SDS011;1336;48.692;9.144;2023-03-13T09:20:33;1.80;;;0.88;;
2652;SDS011;1336;48.692;9.144;2023-03-13T09:21:25;1.27;;;1.00;;
2652;SDS011;1336;48.692;9.144;2023-03-13T09:22:19;2.10;;;1.00;;
2652;SDS011;1336;48.692;9.144;2023-03-13T09:23:10;1.20;;;1.00;;
2652;SDS011;1336;48.692;9.144;2023-03-13T09:24:01;1.23;;;0.90;;
2652;SDS011;1336;48.692;9.144;2023-03-13T09:24:53;1.70;;;0.93;;
2652;SDS011;1336;48.692;9.144;2023-03-13T09:25:44;1.10;;;0.87;;
2652;SDS011;1336;48.692;9.144;2023-03-13T09:26:36;1.73;;;0.98;;
2652;SDS011;1336;48.692;9.144;2023-03-13T09:27:26;2.33;;;1.10;;
2652;SDS011;1336;48.692;9.144;2023-03-13T09:28:18;1.92;;;0.90;;
2652;SDS011;1336;48.692;9.144;2023-03-13T09:29:09;1.38;;;0.73;;
2652;SDS011;1336;48.692;9.144;2023-03-13T09:30:05;1.17;;;0.90;;
2652;SDS011;1336;48.692;9.144;2023-03-13T09:31:04;2.75;;;0.93;;
2652;SDS011;1336;48.692;9.144;2023-03-13T09:31:56;6.05;;;1.13;;
2652;SDS011;1336;48.692;9.144;2023-03-13T09:32:47;0.87;;;0.77;;
2652;SDS011;1336;48.692;9.144;2023-03-13T09:33:39;1.30;;;1.00;;
2652;SDS011;1336;48.692;9.144;2023-03-13T09:34:31;1.63;;;1.10;;
2652;SDS011;1336;48.692;9.144;2023-03-13T09:35:22;2.10;;;0.95;;
2652;SDS011;1336;48.692;9.144;2023-03-13T09:36:13;1.20;;;0.80;;
2652;SDS011;1336;48.692;9.144;2023-03-13T09:37:05;2.28;;;1.10;;
2652;SDS011;1336;48.692;9.144;2023-03-13T09:37:59;1.40;;;0.90;;
2652;SDS011;1336;48.692;9.144;2023-03-13T09:38:51;1.52;;;1.10;;
2652;SDS011;1336;48.692;9.144;2023-03-13T09:39:43;1.70;;;0.70;;
2652;SDS011;1336;48.692;9.144;2023-03-13T09:40:36;1.93;;;1.00;;
2652;SDS011;1336;48.692;9.144;2023-03-13T09:41:32;1.58;;;1.00;;
2652;SDS011;1336;48.692;9.144;2023-03-13T09:42:28;1.75;;;1.00;;
2652;SDS011;1336;48.692;9.144;2023-03-13T09:43:28;1.83;;;1.02;;
2652;SDS011;1336;48.692;9.144;2023-03-13T09:44:30;2.30;;;0.75;;
2652;SDS011;1336;48.692;9.144;2023-03-13T09:45:28;2.30;;;1.05;;
2652;SDS011;1336;48.692;9.144;2023-03-13T09:46:24;1.65;;;0.90;;
2652;SDS011;1336;48.692;9.144;2023-03-13T09:47:22;1.67;;;0.90;;
2652;SDS011;1336;48.692;9.144;2023-03-13T09:48:17;1.70;;;0.90;;
2652;SDS011;1336;48.692;9.144;2023-03-13T09:49:22;1.23;;;1.08;;
2652;SDS011;1336;48.692;9.144;2023-03-13T09:50:20;1.20;;;1.00;;
2652;SDS011;1336;48.692;9.144;2023-03-13T09:51:17;1.85;;;0.90;;
2652;SDS011;1336;48.692;9.144;2023-03-13T09:52:14;2.33;;;1.40;;
2652;SDS011;1336;48.692;9.144;2023-03-13T09:53:12;1.40;;;0.90;;
2652;SDS011;1336;48.692;9.144;2023-03-13T09:54:05;1.92;;;1.17;;
2652;SDS011;1336;48.692;9.144;2023-03-13T09:55:00;2.03;;;0.98;;
2652;SDS011;1336;48.692;9.144;2023-03-13T09:55:54;1.48;;;0.90;;
2652;SDS011;1336;48.692;9.144;2023-03-13T09:56:46;2.30;;;1.30;;
2652;SDS011;1336;48.692;9.144;2023-03-13T09:57:44;1.50;;;0.98;;
2652;SDS011;1336;48.692;9.144;2023-03-13T09:58:39;1.95;;;1.15;;
2652;SDS011;1336;48.692;9.144;2023-03-13T09:59:41;1.40;;;1.20;;
2652;SDS011;1336;48.692;9.144;2023-03-13T10:00:37;1.48;;;1.10;;
2652;SDS011;1336;48.692;9.144;2023-03-13T10:01:29;1.80;;;1.20;;
2652;SDS011;1336;48.692;9.144;2023-03-13T10:02:26;1.40;;;1.15;;
2652;SDS011;1336;48.692;9.144;2023-03-13T10:03:19;1.85;;;1.20;;
2652;SDS011;1336;48.692;9.144;2023-03-13T10:04:23;2.08;;;1.15;;
2652;SDS011;1336;48.692;9.144;2023-03-13T10:05:20;2.22;;;1.10;;
2652;SDS011;1336;48.692;9.144;2023-03-13T10:06:14;1.88;;;0.95;;
2652;SDS011;1336;48.692;9.144;2023-03-13T10:07:09;1.10;;;0.90;;
2652;SDS011;1336;48.692;9.144;2023-03-13T10:08:07;2.20;;;1.05;;
2652;SDS011;1336;48.692;9.144;2023-03-13T10:09:04;1.50;;;1.13;;
2652;SDS011;1336;48.692;9.144;2023-03-13T10:10:08;1.40;;;1.10;;
2652;SDS011;1336;48.692;9.144;2023-03-13T10:11:05;1.80;;;1.20;;
2652;SDS011;1336;48.692;9.144;2023-03-13T10:12:03;1.60;;;1.17;;
2652;SDS011;1336;48.692;9.144;2023-03-13T10:13:03;2.15;;;1.15;;
2652;SDS011;1336;48.692;9.144;2023-03-13T10:14:02;1.48;;;1.10;;
2652;SDS011;1336;48.692;9.144;2023-03-13T10:15:14;1.20;;;1.08;;
2652;SDS011;1336;48.692;9.144;2023-03-13T10:16:13;3.65;;;1.20;;
2652;SDS011;1336;48.692;9.144;2023-03-13T10:17:09;1.90;;;1.23;;
2652;SDS011;1336;48.692;9.144;2023-03-13T10:18:14;2.00;;;1.50;;
2652;SDS011;1336;48.692;9.144;2023-03-13T10:19:10;2.45;;;1.08;;
2652;SDS011;1336;48.692;9.144;2023-03-13T10:20:10;2.60;;;1.10;;
2652;SDS011;1336;48.692;9.144;2023-03-13T10:21:12;2.25;;;1.10;;
2652;SDS011;1336;48.692;9.144;2023-03-13T10:22:09;2.22;;;1.15;;
2652;SDS011;1336;48.692;9.144;2023-03-13T10:23:04;1.60;;;1.40;;
2652;SDS011;1336;48.692;9.144;2023-03-13T10:24:04;1.70;;;1.10;;
2652;SDS011;1336;48.692;9.144;2023-03-13T10:25:02;1.95;;;1.67;;
2652;SDS011;1336;48.692;9.144;2023-03-13T10:25:57;2.08;;;1.25;;
2652;SDS011;1336;48.692;9.144;2023-03-13T10:26:48;1.73;;;1.30;;
2652;SDS011;1336;48.692;9.144;2023-03-13T10:27:43;2.40;;;1.42;;
2652;SDS011;1336;48.692;9.144;2023-03-13T10:28:34;1.60;;;1.20;;
2652;SDS011;1336;48.692;9.144;2023-03-13T10:29:26;2.83;;;1.15;;
2652;SDS011;1336;48.692;9.144;2023-03-13T10:30:20;2.05;;;1.20;;
2652;SDS011;1336;48.692;9.144;2023-03-13T10:31:16;2.25;;;1.30;;
2652;SDS011;1336;48.692;9.144;2023-03-13T10:32:13;2.45;;;1.10;;
2652;SDS011;1336;48.692;9.144;2023-03-13T10:33:16;4.53;;;1.30;;
2652;SDS011;1336;48.692;9.144;2023-03-13T10:34:10;2.85;;;1.00;;
2652;SDS011;1336;48.692;9.144;2023-03-13T10:35:02;2.20;;;1.27;;
2652;SDS011;1336;48.692;9.144;2023-03-13T10:36:01;1.83;;;1.10;;
2652;SDS011;1336;48.692;9.144;2023-03-13T10:36:57;1.40;;;1.15;;
2652;SDS011;1336;48.692;9.144;2023-03-13T10:37:50;4.82;;;1.25;;
2652;SDS011;1336;48.692;9.144;2023-03-13T10:38:52;2.17;;;1.03;;
2652;SDS011;1336;48.692;9.144;2023-03-13T10:39:45;2.90;;;1.40;;
2652;SDS011;1336;48.692;9.144;2023-03-13T10:40:36;2.25;;;1.23;;
2652;SDS011;1336;48.692;9.144;2023-03-13T10:41:29;1.90;;;1.20;;
2652;SDS011;1336;48.692;9.144;2023-03-13T10:42:25;2.30;;;1.20;;
2652;SDS011;1336;48.692;9.144;2023-03-13T10:43:19;2.60;;;1.10;;
2652;SDS011;1336;48.692;9.144;2023-03-13T10:44:14;1.80;;;1.50;;
2652;SDS011;1336;48.692;9.144;2023-03-13T10:45:12;2.90;;;1.50;;
2652;SDS011;1336;48.692;9.144;2023-03-13T10:46:05;3.00;;;1.20;;
2652;SDS011;1336;48.692;9.144;2023-03-13T10:46:59;1.83;;;1.10;;
2652;SDS011;1336;48.692;9.144;2023-03-13T10:47:52;2.75;;;1.30;;
2652;SDS011;1336;48.692;9.144;2023-03-13T10:48:45;3.08;;;1.60;;
2652;SDS011;1336;48.692;9.144;2023-03-13T10:49:36;4.30;;;1.40;;
2652;SDS011;1336;48.692;9.144;2023-03-13T10:50:40;1.87;;;1.07;;
2652;SDS011;1336;48.692;9.144;2023-03-13T10:51:34;1.27;;;1.17;;
2652;SDS011;1336;48.692;9.144;2023-03-13T10:52:29;2.23;;;1.37;;
2652;SDS011;1336;48.692;9.144;2023-03-13T10:53:30;1.45;;;1.10;;
2652;SDS011;1336;48.692;9.144;2023-03-13T10:54:24;1.67;;;1.23;;
2652;SDS011;1336;48.692;9.144;2023-03-13T10:55:18;2.58;;;1.50;;
2652;SDS011;1336;48.692;9.144;2023-03-13T10:56:12;3.55;;;1.65;;
2652;SDS011;1336;48.692;9.144;2023-03-13T10:57:08;2.95;;;1.35;;
2652;SDS011;1336;48.692;9.144;2023-03-13T10:58:14;1.60;;;1.17;;
2652;SDS011;1336;48.692;9.144;2023-03-13T10:59:22;1.63;;;1.10;;
2652;SDS011;1336;48.692;9.144;2023-03-13T11:00:22;2.50;;;1.25;;
2652;SDS011;1336;48.692;9.144;2023-03-13T11:01:25;1.40;;;1.00;;
2652;SDS011;1336;48.692;9.144;2023-03-13T11:02:20;2.70;;;1.23;;
2652;SDS011;1336;48.692;9.144;2023-03-13T11:03:13;2.13;;;1.23;;
2652;SDS011;1336;48.692;9.144;2023-03-13T11:04:17;2.00;;;1.15;;
2652;SDS011;1336;48.692;9.144;2023-03-13T11:06:34;2.47;;;1.40;;
2652;SDS011;1336;48.692;9.144;2023-03-13T11:07:26;2.65;;;1.23;;
2652;SDS011;1336;48.692;9.144;2023-03-13T11:08:22;2.83;;;1.20;;
2652;SDS011;1336;48.692;9.144;2023-03-13T11:09:15;1.55;;;1.17;;
2652;SDS011;1336;48.692;9.144;2023-03-13T11:10:15;1.33;;;1.23;;
2652;SDS011;1336;48.692;9.144;2023-03-13T11:11:16;2.63;;;1.45;;
2652;SDS011;1336;48.692;9.144;2023-03-13T11:12:10;1.40;;;1.25;;
2652;SDS011;1336;48.692;9.144;2023-03-13T11:13:09;2.72;;;1.60;;
2652;SDS011;1336;48.692;9.144;2023-03-13T11:14:18;1.95;;;1.20;;
2652;SDS011;1336;48.692;9.144;2023-03-13T11:15:12;2.63;;;1.90;;
2652;SDS011;1336;48.692;9.144;2023-03-13T11:16:16;1.45;;;1.25;;
2652;SDS011;1336;48.692;9.144;2023-03-13T11:17:12;1.42;;;1.10;;
2652;SDS011;1336;48.692;9.144;2023-03-13T11:18:13;4.63;;;1.50;;
2652;SDS011;1336;48.692;9.144;2023-03-13T11:19:09;1.33;;;1.23;;
2652;SDS011;1336;48.692;9.144;2023-03-13T11:20:23;2.25;;;1.80;;
2652;SDS011;1336;48.692;9.144;2023-03-13T11:21:18;3.20;;;1.27;;
2652;SDS011;1336;48.692;9.144;2023-03-13T11:22:30;2.15;;;1.33;;
2652;SDS011;1336;48.692;9.144;2023-03-13T11:23:35;1.70;;;1.20;;
2652;SDS011;1336;48.692;9.144;2023-03-13T11:24:31;5.32;;;1.85;;
2652;SDS011;1336;48.692;9.144;2023-03-13T11:25:32;1.63;;;1.42;;
2652;SDS011;1336;48.692;9.144;2023-03-13T11:26:30;1.83;;;1.40;;
2652;SDS011;1336;48.692;9.144;2023-03-13T11:27:26;1.50;;;1.38;;
2652;SDS011;1336;48.692;9.144;2023-03-13T11:28:27;2.58;;;1.55;;
2652;SDS011;1336;48.692;9.144;2023-03-13T11:29:30;2.20;;;1.30;;
2652;SDS011;1336;48.692;9.144;2023-03-13T11:30:35;1.70;;;1.25;;
2652;SDS011;1336;48.692;9.144;2023-03-13T11:31:40;1.52;;;1.20;;
2652;SDS011;1336;48.692;9.144;2023-03-13T11:32:37;2.15;;;1.23;;
2652;SDS011;1336;48.692;9.144;2023-03-13T11:33:35;2.45;;;1.40;;
2652;SDS011;1336;48.692;9.144;2023-03-13T11:34:33;3.03;;;1.25;;